Weather reports worldwide

Advertisment
Bolzano, Italy (16020): temperature & dewpoint: 28.05.2020 21:00:00 - 03.06.2020 21:00:00 (CEST)Bolzano, Italy (16020): wind speed: 28.05.2020 21:00:00 - 03.06.2020 21:00:00 (CEST)Bolzano, Italy (16020): wind direction: 28.05.2020 21:00:00 - 03.06.2020 21:00:00 (CEST)Bolzano, Italy (16020): visibility: 28.05.2020 21:00:00 - 03.06.2020 21:00:00 (CEST)
Date & Time tt [°C] td [°C] ff [km/h] ff [kn] dd vv [km]
03.06.2020 21:00:00 22,0 10,0 9 5 S 10
03.06.2020 20:00:00 24,0 12,0 9 5 S 10
03.06.2020 19:00:00 25,0 11,0 13 7 SSE 10
03.06.2020 18:00:00 24,0 11,0 21 11 SSE 10
03.06.2020 17:00:00 26,0 9,0 16 9 SSE 10
03.06.2020 16:00:00 28,0 10,0 21 11 S 10
03.06.2020 15:00:00 27,0 8,0 11 6 SSE 10
03.06.2020 14:00:00 27,0 8,0 9 5 SSE 10
03.06.2020 13:00:00 26,0 10,0 8 4 SSE 10
03.06.2020 12:00:00 24,0 8,0 4 2 - 10
03.06.2020 11:00:00 23,0 9,0 4 2 - 10
03.06.2020 10:00:00 21,0 9,0 4 2 - 10
03.06.2020 09:00:00 19,0 8,0 4 2 - 10
03.06.2020 08:00:00 16,0 8,0 4 2 - 10
03.06.2020 07:00:00 14,0 8,0 4 2 - 10
03.06.2020 06:00:00 - - - - - -
03.06.2020 05:00:00 - - - - - -
03.06.2020 04:00:00 - - - - - -
03.06.2020 03:00:00 - - - - - -
03.06.2020 02:00:00 - - - - - -
03.06.2020 01:00:00 - - - - - -
03.06.2020 00:00:00 - - - - - -
02.06.2020 23:00:00 21,0 9,0 9 5 S 10
02.06.2020 22:00:00 23,0 9,0 16 9 SSE 10
02.06.2020 21:00:00 23,0 9,0 16 9 SSE 10
02.06.2020 20:00:00 25,0 10,0 16 9 S 10
02.06.2020 19:00:00 30,0 -2,0 13 7 - 10
02.06.2020 18:00:00 30,0 -3,0 15 8 - 10
02.06.2020 17:00:00 30,0 -2,0 15 8 NE 10
02.06.2020 16:00:00 31,0 5,0 11 6 SW 10
02.06.2020 15:00:00 29,0 4,0 4 2 - 10
02.06.2020 14:00:00 28,0 9,0 5 3 - 10
02.06.2020 13:00:00 26,0 10,0 5 3 - 10
02.06.2020 12:00:00 24,0 10,0 4 2 - 10
02.06.2020 11:00:00 23,0 9,0 4 2 - 10
02.06.2020 10:00:00 20,0 11,0 4 2 - 10
02.06.2020 09:00:00 18,0 10,0 5 3 - 10
02.06.2020 08:00:00 14,0 11,0 0 0 N 10
02.06.2020 07:00:00 13,0 10,0 4 2 - 10
02.06.2020 06:00:00 - - - - - -
02.06.2020 05:00:00 - - - - - -
02.06.2020 04:00:00 - - - - - -
02.06.2020 03:00:00 - - - - - -
02.06.2020 02:00:00 - - - - - -
02.06.2020 01:00:00 - - - - - -
02.06.2020 00:00:00 - - - - - -
01.06.2020 23:00:00 20,0 9,0 9 5 S 10
01.06.2020 22:00:00 21,0 9,0 9 5 S 10
01.06.2020 21:00:00 23,0 9,0 16 9 SSE 10
01.06.2020 20:00:00 24,0 8,0 18 10 S 10
01.06.2020 19:00:00 26,0 8,0 21 11 S 10
01.06.2020 18:00:00 27,0 8,0 21 11 S 10
01.06.2020 17:00:00 28,0 8,0 21 11 S 10
01.06.2020 16:00:00 28,0 8,0 16 9 S 10
01.06.2020 15:00:00 27,0 6,0 15 8 S 10
01.06.2020 14:00:00 26,0 8,0 11 6 S 10
01.06.2020 13:00:00 24,0 7,0 8 4 S 10
01.06.2020 12:00:00 23,0 7,0 5 3 - 10
01.06.2020 11:00:00 21,0 7,0 5 3 - 10
01.06.2020 10:00:00 19,0 8,0 4 2 - 10
01.06.2020 09:00:00 17,0 7,0 2 1 - 10
01.06.2020 08:00:00 10,0 8,0 4 2 - 10
01.06.2020 07:00:00 9,0 7,0 4 2 - 10
01.06.2020 06:00:00 - - - - - -
01.06.2020 05:00:00 - - - - - -
01.06.2020 04:00:00 - - - - - -
01.06.2020 03:00:00 - - - - - -
01.06.2020 02:00:00 - - - - - -
01.06.2020 01:00:00 - - - - - -
01.06.2020 00:00:00 - - - - - -
31.05.2020 23:00:00 17,0 8,0 5 3 - 10
31.05.2020 22:00:00 18,0 9,0 5 3 - 10
31.05.2020 21:00:00 19,0 9,0 9 5 ESE 10
31.05.2020 20:00:00 20,0 9,0 9 5 SSE 10
31.05.2020 19:00:00 22,0 8,0 11 6 S 10
31.05.2020 18:00:00 22,0 8,0 13 7 S 10
31.05.2020 17:00:00 23,0 8,0 13 7 S 10
31.05.2020 16:00:00 23,0 7,0 8 4 S 10
31.05.2020 15:00:00 23,0 7,0 9 5 S 10
31.05.2020 14:00:00 22,0 7,0 11 6 S 10
31.05.2020 13:00:00 21,0 9,0 11 6 S 10
31.05.2020 12:00:00 20,0 8,0 9 5 SSE 10
31.05.2020 11:00:00 18,0 9,0 8 4 - 10
31.05.2020 10:00:00 16,0 9,0 4 2 - 10
31.05.2020 09:00:00 14,0 11,0 2 1 - 10
31.05.2020 08:00:00 14,0 10,0 2 1 - 10
31.05.2020 07:00:00 14,0 9,0 8 4 N 10
31.05.2020 06:00:00 - - - - - -
31.05.2020 05:00:00 - - - - - -
31.05.2020 04:00:00 - - - - - -
31.05.2020 03:00:00 - - - - - -
31.05.2020 02:00:00 - - - - - -
31.05.2020 01:00:00 - - - - - -
31.05.2020 00:00:00 - - - - - -
30.05.2020 23:00:00 16,0 11,0 5 3 - 10
30.05.2020 22:00:00 18,0 9,0 4 2 - 10
30.05.2020 21:00:00 - - - - - -
30.05.2020 20:00:00 18,0 10,0 5 3 - 10
30.05.2020 19:00:00 19,0 8,0 9 5 S 10
30.05.2020 18:00:00 20,0 7,0 11 6 SSE 10
30.05.2020 17:00:00 21,0 7,0 13 7 S 10
30.05.2020 16:00:00 21,0 7,0 11 6 S 10
30.05.2020 15:00:00 22,0 7,0 15 8 S 10
30.05.2020 14:00:00 22,0 7,0 15 8 S 10
30.05.2020 13:00:00 21,0 7,0 11 6 S 10
30.05.2020 12:00:00 21,0 7,0 11 6 S 10
30.05.2020 11:00:00 21,0 7,0 8 4 - 10
30.05.2020 10:00:00 17,0 2,0 4 2 - 10
30.05.2020 09:00:00 17,0 6,0 4 2 - 10
30.05.2020 08:00:00 16,0 6,0 0 0 N 10
30.05.2020 07:00:00 14,0 6,0 2 1 - 10
30.05.2020 06:00:00 - - - - - -
30.05.2020 05:00:00 - - - - - -
30.05.2020 04:00:00 - - - - - -
30.05.2020 03:00:00 - - - - - -
30.05.2020 02:00:00 - - - - - -
30.05.2020 01:00:00 - - - - - -
30.05.2020 00:00:00 - - - - - -
29.05.2020 23:00:00 17,0 6,0 9 5 S 10
29.05.2020 22:00:00 19,0 5,0 16 9 S 10
29.05.2020 21:00:00 20,0 4,0 13 7 SSE 10
29.05.2020 20:00:00 21,0 4,0 16 9 SSE 10
29.05.2020 19:00:00 22,0 5,0 16 9 S 10
29.05.2020 18:00:00 23,0 3,0 18 10 S 10
29.05.2020 17:00:00 25,0 3,0 16 9 S 10
29.05.2020 16:00:00 25,0 0,0 9 5 SW 10
29.05.2020 15:00:00 24,0 2,0 9 5 S 10
29.05.2020 14:00:00 24,0 -2,0 8 4 - 10
29.05.2020 13:00:00 23,0 0,0 5 3 - 10
29.05.2020 12:00:00 21,0 -2,0 5 3 - 10
29.05.2020 11:00:00 20,0 -2,0 11 6 NNW 10
29.05.2020 10:00:00 18,0 0,0 9 5 NNW 10
29.05.2020 09:00:00 17,0 2,0 9 5 - 10
29.05.2020 08:00:00 13,0 2,0 9 5 W 10
29.05.2020 07:00:00 15,0 -1,0 9 5 - 10
29.05.2020 06:00:00 - - - - - -
29.05.2020 05:00:00 - - - - - -
29.05.2020 04:00:00 - - - - - -
29.05.2020 03:00:00 - - - - - -
29.05.2020 02:00:00 - - - - - -
29.05.2020 01:00:00 - - - - - -
29.05.2020 00:00:00 - - - - - -
28.05.2020 23:00:00 19,0 -1,0 9 5 N 10
28.05.2020 22:00:00 19,0 1,0 5 3 - 10
28.05.2020 21:00:00 21,0 0,0 16 9 N 10

tt = temperature
td = dewpoint
ff = wind speed
dd = wind direction
vv = visibility

Next stations